sensor_id;sensor_type;location;lat;lon;timestamp;pressure;altitude;pressure_sealevel;temperature;humidity
78317;BME280;67572;50.930;18.276;2023-08-30T00:02:17;98100.72;;;15.50;100.00
78317;BME280;67572;50.930;18.276;2023-08-30T00:05:22;98108.00;;;15.40;100.00
78317;BME280;67572;50.930;18.276;2023-08-30T00:08:25;98100.09;;;15.30;100.00
78317;BME280;67572;50.930;18.276;2023-08-30T00:11:29;98100.41;;;15.19;100.00
78317;BME280;67572;50.930;18.276;2023-08-30T00:14:34;98097.19;;;15.15;100.00
78317;BME280;67572;50.930;18.276;2023-08-30T00:17:38;98096.03;;;15.18;100.00
78317;BME280;67572;50.930;18.276;2023-08-30T00:20:43;98089.81;;;15.17;100.00
78317;BME280;67572;50.930;18.276;2023-08-30T00:23:47;98093.34;;;15.18;100.00
78317;BME280;67572;50.930;18.276;2023-08-30T00:26:50;98088.69;;;15.20;100.00
78317;BME280;67572;50.930;18.276;2023-08-30T00:29:54;98097.56;;;15.20;100.00
78317;BME280;67572;50.930;18.276;2023-08-30T00:32:57;98081.09;;;15.07;100.00
78317;BME280;67572;50.930;18.276;2023-08-30T00:36:02;98084.09;;;15.04;100.00
78317;BME280;67572;50.930;18.276;2023-08-30T00:39:06;98080.41;;;15.05;100.00
78317;BME280;67572;50.930;18.276;2023-08-30T00:42:10;98074.53;;;15.02;100.00
78317;BME280;67572;50.930;18.276;2023-08-30T00:45:14;98070.28;;;14.91;100.00
78317;BME280;67572;50.930;18.276;2023-08-30T00:48:19;98071.75;;;14.85;100.00
78317;BME280;67572;50.930;18.276;2023-08-30T00:51:27;98079.63;;;14.87;100.00
78317;BME280;67572;50.930;18.276;2023-08-30T00:54:30;98074.09;;;14.88;100.00
78317;BME280;67572;50.930;18.276;2023-08-30T00:57:34;98062.22;;;14.83;100.00
78317;BME280;67572;50.930;18.276;2023-08-30T01:00:38;98066.94;;;14.89;100.00
78317;BME280;67572;50.930;18.276;2023-08-30T01:03:44;98066.94;;;14.89;100.00
78317;BME280;67572;50.930;18.276;2023-08-30T01:09:53;98079.34;;;14.72;100.00
78317;BME280;67572;50.930;18.276;2023-08-30T01:13:03;98091.09;;;14.79;100.00
78317;BME280;67572;50.930;18.276;2023-08-30T01:16:09;98086.59;;;14.80;100.00
78317;BME280;67572;50.930;18.276;2023-08-30T01:19:26;98094.41;;;14.73;100.00
78317;BME280;67572;50.930;18.276;2023-08-30T01:22:43;98099.09;;;14.71;100.00
78317;BME280;67572;50.930;18.276;2023-08-30T01:25:55;98091.44;;;14.76;100.00
78317;BME280;67572;50.930;18.276;2023-08-30T01:29:03;98079.56;;;14.79;100.00
78317;BME280;67572;50.930;18.276;2023-08-30T01:32:08;98070.19;;;14.75;100.00
78317;BME280;67572;50.930;18.276;2023-08-30T01:35:13;98066.56;;;14.84;100.00
78317;BME280;67572;50.930;18.276;2023-08-30T01:38:19;98073.72;;;14.75;100.00
78317;BME280;67572;50.930;18.276;2023-08-30T01:41:23;98065.91;;;14.64;100.00
78317;BME280;67572;50.930;18.276;2023-08-30T01:44:30;98077.16;;;14.67;100.00
78317;BME280;67572;50.930;18.276;2023-08-30T01:47:35;98075.34;;;14.68;100.00
78317;BME280;67572;50.930;18.276;2023-08-30T01:50:40;98069.03;;;14.77;100.00
78317;BME280;67572;50.930;18.276;2023-08-30T01:53:45;98063.00;;;14.75;100.00
78317;BME280;67572;50.930;18.276;2023-08-30T01:56:49;98063.94;;;14.66;100.00
78317;BME280;67572;50.930;18.276;2023-08-30T01:59:54;98062.63;;;14.70;100.00
78317;BME280;67572;50.930;18.276;2023-08-30T02:02:58;98073.16;;;14.71;100.00
78317;BME280;67572;50.930;18.276;2023-08-30T02:06:05;98063.09;;;14.65;100.00
78317;BME280;67572;50.930;18.276;2023-08-30T02:09:16;98063.84;;;14.76;100.00
78317;BME280;67572;50.930;18.276;2023-08-30T02:12:22;98072.88;;;14.75;100.00
78317;BME280;67572;50.930;18.276;2023-08-30T02:15:30;98073.88;;;14.74;100.00
78317;BME280;67572;50.930;18.276;2023-08-30T02:18:36;98063.25;;;14.90;100.00
78317;BME280;67572;50.930;18.276;2023-08-30T02:21:40;98059.88;;;14.88;100.00
78317;BME280;67572;50.930;18.276;2023-08-30T02:24:45;98056.22;;;14.89;100.00
78317;BME280;67572;50.930;18.276;2023-08-30T02:27:48;98048.09;;;14.73;100.00
78317;BME280;67572;50.930;18.276;2023-08-30T02:30:54;98049.00;;;14.81;100.00
78317;BME280;67572;50.930;18.276;2023-08-30T02:33:57;98046.19;;;14.91;100.00
78317;BME280;67572;50.930;18.276;2023-08-30T02:37:00;98039.44;;;14.79;100.00
78317;BME280;67572;50.930;18.276;2023-08-30T02:40:05;98039.94;;;14.74;100.00
78317;BME280;67572;50.930;18.276;2023-08-30T02:43:08;98037.25;;;14.74;100.00
78317;BME280;67572;50.930;18.276;2023-08-30T02:46:13;98041.75;;;14.74;100.00
78317;BME280;67572;50.930;18.276;2023-08-30T02:49:17;98033.88;;;14.72;100.00
78317;BME280;67572;50.930;18.276;2023-08-30T02:52:20;98035.28;;;14.84;100.00
78317;BME280;67572;50.930;18.276;2023-08-30T02:55:24;98040.44;;;14.78;100.00
78317;BME280;67572;50.930;18.276;2023-08-30T02:58:27;98042.78;;;14.81;100.00
78317;BME280;67572;50.930;18.276;2023-08-30T03:01:36;98038.13;;;14.83;100.00
78317;BME280;67572;50.930;18.276;2023-08-30T03:04:40;98035.47;;;14.83;100.00
78317;BME280;67572;50.930;18.276;2023-08-30T03:07:44;98032.44;;;14.86;100.00
78317;BME280;67572;50.930;18.276;2023-08-30T03:10:48;98035.66;;;14.89;100.00
78317;BME280;67572;50.930;18.276;2023-08-30T03:13:53;98041.00;;;14.89;100.00
78317;BME280;67572;50.930;18.276;2023-08-30T03:16:58;98041.47;;;14.85;100.00
78317;BME280;67572;50.930;18.276;2023-08-30T03:20:03;98038.13;;;14.83;100.00
78317;BME280;67572;50.930;18.276;2023-08-30T03:23:07;98027.50;;;14.73;100.00
78317;BME280;67572;50.930;18.276;2023-08-30T03:26:12;98028.06;;;14.77;100.00
78317;BME280;67572;50.930;18.276;2023-08-30T03:29:16;98027.84;;;14.70;100.00
78317;BME280;67572;50.930;18.276;2023-08-30T03:32:21;98033.91;;;14.80;100.00
78317;BME280;67572;50.930;18.276;2023-08-30T03:35:24;98035.53;;;14.73;100.00
78317;BME280;67572;50.930;18.276;2023-08-30T03:38:28;98030.53;;;14.70;100.00
78317;BME280;67572;50.930;18.276;2023-08-30T03:41:31;98031.47;;;14.61;100.00
78317;BME280;67572;50.930;18.276;2023-08-30T03:44:37;98028.25;;;14.57;100.00
78317;BME280;67572;50.930;18.276;2023-08-30T03:49:49;98027.97;;;14.60;100.00
78317;BME280;67572;50.930;18.276;2023-08-30T03:52:52;98028.59;;;14.54;100.00
78317;BME280;67572;50.930;18.276;2023-08-30T03:55:56;98031.34;;;14.44;100.00
78317;BME280;67572;50.930;18.276;2023-08-30T03:59:00;98038.66;;;14.42;100.00
78317;BME280;67572;50.930;18.276;2023-08-30T04:02:03;98039.75;;;14.50;100.00
78317;BME280;67572;50.930;18.276;2023-08-30T04:05:09;98034.09;;;14.53;100.00
78317;BME280;67572;50.930;18.276;2023-08-30T04:08:12;98028.22;;;14.49;100.00
78317;BME280;67572;50.930;18.276;2023-08-30T04:11:16;98025.28;;;14.42;100.00
78317;BME280;67572;50.930;18.276;2023-08-30T04:14:20;98021.91;;;14.58;100.00
78317;BME280;67572;50.930;18.276;2023-08-30T04:17:25;98023.78;;;14.66;100.00
78317;BME280;67572;50.930;18.276;2023-08-30T04:20:31;98030.53;;;14.70;100.00
78317;BME280;67572;50.930;18.276;2023-08-30T04:23:35;98025.97;;;14.62;100.00
78317;BME280;67572;50.930;18.276;2023-08-30T04:26:39;98027.16;;;14.68;100.00
78317;BME280;67572;50.930;18.276;2023-08-30T04:29:43;98026.53;;;14.74;100.00
78317;BME280;67572;50.930;18.276;2023-08-30T04:32:47;98028.38;;;14.74;100.00
78317;BME280;67572;50.930;18.276;2023-08-30T04:35:52;98027.84;;;14.70;100.00
78317;BME280;67572;50.930;18.276;2023-08-30T04:38:56;98020.88;;;14.77;100.00
78317;BME280;67572;50.930;18.276;2023-08-30T04:42:06;98021.50;;;14.71;100.00
78317;BME280;67572;50.930;18.276;2023-08-30T04:45:10;98025.38;;;14.77;100.00
78317;BME280;67572;50.930;18.276;2023-08-30T04:48:13;98022.16;;;14.73;100.00
78317;BME280;67572;50.930;18.276;2023-08-30T04:51:19;98020.50;;;14.72;100.00
78317;BME280;67572;50.930;18.276;2023-08-30T04:54:22;98018.78;;;14.63;100.00
78317;BME280;67572;50.930;18.276;2023-08-30T04:57:26;98021.63;;;14.61;100.00
78317;BME280;67572;50.930;18.276;2023-08-30T05:00:30;98027.69;;;14.71;100.00
78317;BME280;67572;50.930;18.276;2023-08-30T05:03:34;98028.38;;;14.74;100.00
78317;BME280;67572;50.930;18.276;2023-08-30T05:06:39;98039.19;;;14.90;100.00
78317;BME280;67572;50.930;18.276;2023-08-30T05:09:42;98037.44;;;14.81;100.00
78317;BME280;67572;50.930;18.276;2023-08-30T05:12:46;98038.97;;;14.83;100.00
78317;BME280;67572;50.930;18.276;2023-08-30T05:15:54;98046.66;;;14.86;100.00
78317;BME280;67572;50.930;18.276;2023-08-30T05:18:57;98040.81;;;14.83;100.00
78317;BME280;67572;50.930;18.276;2023-08-30T05:22:03;98044.47;;;14.82;100.00
78317;BME280;67572;50.930;18.276;2023-08-30T05:25:07;98047.16;;;14.82;100.00
78317;BME280;67572;50.930;18.276;2023-08-30T05:28:10;98040.59;;;14.76;100.00
78317;BME280;67572;50.930;18.276;2023-08-30T05:31:15;98049.97;;;14.80;100.00
78317;BME280;67572;50.930;18.276;2023-08-30T05:34:47;98048.53;;;14.94;100.00
78317;BME280;67572;50.930;18.276;2023-08-30T05:38:17;98045.53;;;14.89;100.00
78317;BME280;67572;50.930;18.276;2023-08-30T05:41:27;98038.44;;;14.80;100.00
78317;BME280;67572;50.930;18.276;2023-08-30T05:44:30;98039.22;;;14.72;100.00
78317;BME280;67572;50.930;18.276;2023-08-30T05:47:34;98043.47;;;14.83;100.00
78317;BME280;67572;50.930;18.276;2023-08-30T05:50:38;98047.00;;;14.83;100.00
78317;BME280;67572;50.930;18.276;2023-08-30T05:53:44;98050.50;;;14.84;100.00
78317;BME280;67572;50.930;18.276;2023-08-30T05:56:47;98050.50;;;14.84;100.00
78317;BME280;67572;50.930;18.276;2023-08-30T05:59:51;98055.53;;;14.87;100.00
78317;BME280;67572;50.930;18.276;2023-08-30T06:02:54;98057.03;;;14.81;100.00
78317;BME280;67572;50.930;18.276;2023-08-30T06:05:58;98049.63;;;14.75;100.00
78317;BME280;67572;50.930;18.276;2023-08-30T06:09:03;98058.22;;;14.87;100.00
78317;BME280;67572;50.930;18.276;2023-08-30T06:12:07;98058.91;;;14.89;100.00
78317;BME280;67572;50.930;18.276;2023-08-30T06:15:11;98048.88;;;14.91;100.00
78317;BME280;67572;50.930;18.276;2023-08-30T06:18:15;98051.72;;;14.89;100.00
78317;BME280;67572;50.930;18.276;2023-08-30T06:21:18;98050.75;;;14.98;100.00
78317;BME280;67572;50.930;18.276;2023-08-30T06:24:23;98057.41;;;15.20;100.00
78317;BME280;67572;50.930;18.276;2023-08-30T06:27:27;98053.97;;;15.10;100.00
78317;BME280;67572;50.930;18.276;2023-08-30T06:30:30;98057.13;;;14.97;100.00
78317;BME280;67572;50.930;18.276;2023-08-30T06:33:34;98049.38;;;14.94;100.00
78317;BME280;67572;50.930;18.276;2023-08-30T06:36:39;98056.63;;;15.02;100.00
78317;BME280;67572;50.930;18.276;2023-08-30T06:39:44;98059.00;;;15.05;100.00
78317;BME280;67572;50.930;18.276;2023-08-30T06:42:47;98060.00;;;15.04;100.00
78317;BME280;67572;50.930;18.276;2023-08-30T06:45:50;98057.31;;;15.04;100.00
78317;BME280;67572;50.930;18.276;2023-08-30T06:48:55;98065.16;;;14.97;100.00
78317;BME280;67572;50.930;18.276;2023-08-30T06:51:58;98063.69;;;15.11;100.00
78317;BME280;67572;50.930;18.276;2023-08-30T06:55:05;98067.69;;;15.07;100.00
78317;BME280;67572;50.930;18.276;2023-08-30T06:58:09;98070.25;;;15.17;100.00
78317;BME280;67572;50.930;18.276;2023-08-30T07:01:13;98069.78;;;15.21;100.00
78317;BME280;67572;50.930;18.276;2023-08-30T07:04:16;98068.88;;;15.05;100.00
78317;BME280;67572;50.930;18.276;2023-08-30T07:07:20;98076.34;;;15.01;100.00
78317;BME280;67572;50.930;18.276;2023-08-30T07:10:25;98073.25;;;14.88;100.00
78317;BME280;67572;50.930;18.276;2023-08-30T07:13:28;98077.16;;;14.93;100.00
78317;BME280;67572;50.930;18.276;2023-08-30T07:16:32;98080.16;;;14.90;100.00
78317;BME280;67572;50.930;18.276;2023-08-30T07:19:35;98082.22;;;14.96;100.00
78317;BME280;67572;50.930;18.276;2023-08-30T07:22:39;98093.84;;;15.13;100.00
78317;BME280;67572;50.930;18.276;2023-08-30T07:25:44;98091.41;;;15.02;100.00
78317;BME280;67572;50.930;18.276;2023-08-30T07:39:34;98101.69;;;14.63;100.00
78317;BME280;67572;50.930;18.276;2023-08-30T07:42:39;98102.59;;;14.71;100.00
78317;BME280;67572;50.930;18.276;2023-08-30T07:45:44;98103.81;;;14.77;100.00
78317;BME280;67572;50.930;18.276;2023-08-30T07:48:47;98105.09;;;14.73;100.00
78317;BME280;67572;50.930;18.276;2023-08-30T07:51:51;98109.72;;;14.63;100.00
78317;BME280;67572;50.930;18.276;2023-08-30T07:54:54;98115.69;;;14.75;100.00
78317;BME280;67572;50.930;18.276;2023-08-30T07:57:59;98108.91;;;14.62;100.00
78317;BME280;67572;50.930;18.276;2023-08-30T08:01:03;98119.66;;;14.70;100.00
78317;BME280;67572;50.930;18.276;2023-08-30T08:04:07;98114.84;;;14.56;100.00
78317;BME280;67572;50.930;18.276;2023-08-30T08:07:10;98117.38;;;14.58;100.00
78317;BME280;67572;50.930;18.276;2023-08-30T08:10:14;98114.75;;;14.66;100.00
78317;BME280;67572;50.930;18.276;2023-08-30T08:13:19;98114.97;;;14.73;100.00
78317;BME280;67572;50.930;18.276;2023-08-30T08:16:24;98120.09;;;14.84;100.00
78317;BME280;67572;50.930;18.276;2023-08-30T08:19:28;98125.22;;;14.77;100.00
78317;BME280;67572;50.930;18.276;2023-08-30T08:22:31;98126.13;;;14.86;100.00
78317;BME280;67572;50.930;18.276;2023-08-30T08:25:35;98133.63;;;14.82;100.00
78317;BME280;67572;50.930;18.276;2023-08-30T08:28:39;98133.56;;;14.74;100.00
78317;BME280;67572;50.930;18.276;2023-08-30T08:31:43;98129.00;;;14.66;100.00
78317;BME280;67572;50.930;18.276;2023-08-30T08:34:47;98128.47;;;14.63;100.00
78317;BME280;67572;50.930;18.276;2023-08-30T08:37:50;98131.19;;;14.71;100.00
78317;BME280;67572;50.930;18.276;2023-08-30T08:41:01;98139.59;;;14.76;100.00
78317;BME280;67572;50.930;18.276;2023-08-30T08:44:07;98136.09;;;14.76;100.00
78317;BME280;67572;50.930;18.276;2023-08-30T08:47:11;98136.16;;;14.84;100.00
78317;BME280;67572;50.930;18.276;2023-08-30T08:50:15;98148.19;;;14.88;100.00
78317;BME280;67572;50.930;18.276;2023-08-30T08:53:19;98142.38;;;14.92;100.00
78317;BME280;67572;50.930;18.276;2023-08-30T08:56:24;98154.03;;;15.09;100.00
78317;BME280;67572;50.930;18.276;2023-08-30T08:59:29;98150.63;;;14.99;100.00
78317;BME280;67572;50.930;18.276;2023-08-30T09:02:32;98149.00;;;15.06;100.00
78317;BME280;67572;50.930;18.276;2023-08-30T09:05:37;98151.38;;;15.09;100.00
78317;BME280;67572;50.930;18.276;2023-08-30T09:08:43;98153.38;;;15.07;99.65
78317;BME280;67572;50.930;18.276;2023-08-30T09:11:46;98147.72;;;15.18;99.85
78317;BME280;67572;50.930;18.276;2023-08-30T09:14:55;98149.91;;;15.15;99.32
78317;BME280;67572;50.930;18.276;2023-08-30T09:17:59;98149.06;;;15.14;99.62
78317;BME280;67572;50.930;18.276;2023-08-30T09:21:06;98148.53;;;15.11;99.57
78317;BME280;67572;50.930;18.276;2023-08-30T09:24:09;98158.53;;;15.26;100.00
78317;BME280;67572;50.930;18.276;2023-08-30T09:27:13;98160.19;;;15.27;100.00
78317;BME280;67572;50.930;18.276;2023-08-30T09:30:22;98164.00;;;15.25;100.00
78317;BME280;67572;50.930;18.276;2023-08-30T09:33:33;98164.13;;;15.15;100.00
78317;BME280;67572;50.930;18.276;2023-08-30T09:36:39;98168.53;;;15.24;100.00
78317;BME280;67572;50.930;18.276;2023-08-30T09:39:48;98165.75;;;15.08;100.00
78317;BME280;67572;50.930;18.276;2023-08-30T09:42:52;98174.84;;;15.15;100.00
78317;BME280;67572;50.930;18.276;2023-08-30T09:46:16;98157.47;;;15.19;100.00
78317;BME280;67572;50.930;18.276;2023-08-30T09:49:20;98161.91;;;15.37;100.00
78317;BME280;67572;50.930;18.276;2023-08-30T09:52:25;98160.50;;;15.24;100.00
78317;BME280;67572;50.930;18.276;2023-08-30T09:55:32;98158.69;;;15.33;100.00
78317;BME280;67572;50.930;18.276;2023-08-30T09:58:38;98155.69;;;15.28;100.00
78317;BME280;67572;50.930;18.276;2023-08-30T10:01:46;98161.13;;;15.44;100.00
78317;BME280;67572;50.930;18.276;2023-08-30T10:04:52;98158.38;;;15.62;99.88
78317;BME280;67572;50.930;18.276;2023-08-30T10:07:57;98156.84;;;15.60;99.18
78317;BME280;67572;50.930;18.276;2023-08-30T10:11:01;98158.22;;;15.64;98.79
78317;BME280;67572;50.930;18.276;2023-08-30T10:14:06;98154.13;;;15.94;98.45
78317;BME280;67572;50.930;18.276;2023-08-30T10:17:12;98167.31;;;15.79;97.46
78317;BME280;67572;50.930;18.276;2023-08-30T10:20:18;98160.81;;;15.81;97.71
78317;BME280;67572;50.930;18.276;2023-08-30T10:23:23;98161.88;;;15.97;97.48
78317;BME280;67572;50.930;18.276;2023-08-30T10:26:29;98155.94;;;15.77;95.50
78317;BME280;67572;50.930;18.276;2023-08-30T10:29:35;98161.94;;;15.71;96.71
78317;BME280;67572;50.930;18.276;2023-08-30T10:32:41;98151.59;;;15.84;96.78
78317;BME280;67572;50.930;18.276;2023-08-30T10:35:48;98158.00;;;15.91;95.42
78317;BME280;67572;50.930;18.276;2023-08-30T10:38:54;98162.06;;;16.03;95.39
78317;BME280;67572;50.930;18.276;2023-08-30T10:41:57;98157.81;;;15.93;94.79
78317;BME280;67572;50.930;18.276;2023-08-30T10:45:04;98161.84;;;15.89;94.67
78317;BME280;67572;50.930;18.276;2023-08-30T10:48:12;98170.00;;;15.79;94.80
78317;BME280;67572;50.930;18.276;2023-08-30T10:51:34;98167.44;;;15.69;94.15
78317;BME280;67572;50.930;18.276;2023-08-30T10:54:38;98168.91;;;15.98;93.69
78317;BME280;67572;50.930;18.276;2023-08-30T10:57:43;98173.19;;;16.33;93.11
78317;BME280;67572;50.930;18.276;2023-08-30T11:00:47;98175.50;;;16.12;91.43
78317;BME280;67572;50.930;18.276;2023-08-30T11:03:52;98174.38;;;16.47;91.87
78317;BME280;67572;50.930;18.276;2023-08-30T11:07:16;98174.72;;;16.60;90.33
78317;BME280;67572;50.930;18.276;2023-08-30T11:10:20;98177.13;;;16.71;89.32
78317;BME280;67572;50.930;18.276;2023-08-30T11:13:24;98175.91;;;16.98;89.76
78317;BME280;67572;50.930;18.276;2023-08-30T11:16:27;98172.56;;;16.96;88.01
78317;BME280;67572;50.930;18.276;2023-08-30T11:19:32;98171.38;;;16.99;88.20
78317;BME280;67572;50.930;18.276;2023-08-30T11:22:37;98166.34;;;16.63;88.56
78317;BME280;67572;50.930;18.276;2023-08-30T11:25:41;98165.66;;;16.45;86.81
78317;BME280;67572;50.930;18.276;2023-08-30T11:28:45;98166.63;;;16.27;87.73
78317;BME280;67572;50.930;18.276;2023-08-30T11:31:50;98170.50;;;16.33;87.43
78317;BME280;67572;50.930;18.276;2023-08-30T11:34:59;98170.31;;;16.18;88.27
78317;BME280;67572;50.930;18.276;2023-08-30T11:38:03;98163.13;;;16.27;88.69
78317;BME280;67572;50.930;18.276;2023-08-30T11:41:07;98161.47;;;16.58;88.58
78317;BME280;67572;50.930;18.276;2023-08-30T11:44:11;98160.63;;;16.66;87.96
78317;BME280;67572;50.930;18.276;2023-08-30T11:47:18;98147.06;;;17.08;84.26
78317;BME280;67572;50.930;18.276;2023-08-30T11:50:23;98147.03;;;17.00;85.74
78317;BME280;67572;50.930;18.276;2023-08-30T11:53:29;98160.63;;;17.07;85.11
78317;BME280;67572;50.930;18.276;2023-08-30T11:56:33;98151.09;;;16.88;86.23
78317;BME280;67572;50.930;18.276;2023-08-30T11:59:37;98145.75;;;16.72;86.77
78317;BME280;67572;50.930;18.276;2023-08-30T12:02:42;98148.38;;;16.47;87.52
78317;BME280;67572;50.930;18.276;2023-08-30T12:05:49;98149.38;;;16.30;87.24
78317;BME280;67572;50.930;18.276;2023-08-30T12:08:57;98153.91;;;16.37;88.14
78317;BME280;67572;50.930;18.276;2023-08-30T12:12:05;98152.38;;;16.27;87.56
78317;BME280;67572;50.930;18.276;2023-08-30T12:15:10;98161.28;;;16.35;89.55
78317;BME280;67572;50.930;18.276;2023-08-30T12:18:14;98160.09;;;16.38;88.18
78317;BME280;67572;50.930;18.276;2023-08-30T12:21:19;98158.13;;;16.40;88.08
78317;BME280;67572;50.930;18.276;2023-08-30T12:24:23;98151.56;;;16.43;86.91
78317;BME280;67572;50.930;18.276;2023-08-30T12:27:26;98149.56;;;16.61;86.03
78317;BME280;67572;50.930;18.276;2023-08-30T12:30:30;98151.22;;;16.46;84.00
78317;BME280;67572;50.930;18.276;2023-08-30T12:33:34;98150.38;;;16.45;85.13
78317;BME280;67572;50.930;18.276;2023-08-30T12:36:39;98147.38;;;16.40;86.13
78317;BME280;67572;50.930;18.276;2023-08-30T12:39:42;98139.16;;;16.50;86.40
78317;BME280;67572;50.930;18.276;2023-08-30T12:42:46;98150.91;;;16.49;86.96
78317;BME280;67572;50.930;18.276;2023-08-30T12:45:50;98155.06;;;16.27;90.09
78317;BME280;67572;50.930;18.276;2023-08-30T12:48:53;98165.97;;;16.17;90.54
78317;BME280;67572;50.930;18.276;2023-08-30T12:52:01;98161.34;;;16.01;90.14
78317;BME280;67572;50.930;18.276;2023-08-30T12:55:05;98178.44;;;15.92;90.38
78317;BME280;67572;50.930;18.276;2023-08-30T12:58:09;98162.84;;;15.88;90.51
78317;BME280;67572;50.930;18.276;2023-08-30T13:01:13;98163.16;;;15.85;91.05
78317;BME280;67572;50.930;18.276;2023-08-30T13:04:17;98164.69;;;15.87;91.27
78317;BME280;67572;50.930;18.276;2023-08-30T13:07:22;98166.88;;;16.00;89.63
78317;BME280;67572;50.930;18.276;2023-08-30T13:10:26;98162.25;;;16.18;89.40
78317;BME280;67572;50.930;18.276;2023-08-30T13:13:30;98162.75;;;16.14;89.15
78317;BME280;67572;50.930;18.276;2023-08-30T13:16:33;98166.09;;;16.16;90.02
78317;BME280;67572;50.930;18.276;2023-08-30T13:19:38;98166.63;;;16.27;89.19
78317;BME280;67572;50.930;18.276;2023-08-30T13:22:42;98164.44;;;16.31;88.56
78317;BME280;67572;50.930;18.276;2023-08-30T13:25:47;98165.28;;;16.23;88.30
78317;BME280;67572;50.930;18.276;2023-08-30T13:28:51;98157.72;;;16.11;90.22
78317;BME280;67572;50.930;18.276;2023-08-30T13:31:55;98161.19;;;15.95;90.49
78317;BME280;67572;50.930;18.276;2023-08-30T13:34:59;98160.88;;;16.06;91.14
78317;BME280;67572;50.930;18.276;2023-08-30T13:38:04;98158.53;;;15.95;90.78
78317;BME280;67572;50.930;18.276;2023-08-30T13:41:08;98158.53;;;15.95;91.57
78317;BME280;67572;50.930;18.276;2023-08-30T13:44:11;98173.09;;;16.00;91.09
78317;BME280;67572;50.930;18.276;2023-08-30T13:47:15;98167.72;;;16.00;90.39
78317;BME280;67572;50.930;18.276;2023-08-30T13:50:19;98166.03;;;15.91;89.90
78317;BME280;67572;50.930;18.276;2023-08-30T13:53:27;98163.34;;;15.91;91.03
78317;BME280;67572;50.930;18.276;2023-08-30T13:56:30;98165.81;;;15.76;91.00
78317;BME280;67572;50.930;18.276;2023-08-30T13:59:35;98166.97;;;15.74;90.85
78317;BME280;67572;50.930;18.276;2023-08-30T14:02:38;98177.34;;;15.69;90.96
78317;BME280;67572;50.930;18.276;2023-08-30T14:05:43;98181.59;;;15.79;91.69
78317;BME280;67572;50.930;18.276;2023-08-30T14:08:48;98177.09;;;15.88;90.28
78317;BME280;67572;50.930;18.276;2023-08-30T14:11:51;98177.09;;;15.88;89.89
78317;BME280;67572;50.930;18.276;2023-08-30T14:14:55;98180.31;;;16.08;90.08
78317;BME280;67572;50.930;18.276;2023-08-30T14:17:58;98178.34;;;16.18;88.40
78317;BME280;67572;50.930;18.276;2023-08-30T14:21:03;98177.19;;;16.21;87.57
78317;BME280;67572;50.930;18.276;2023-08-30T14:24:08;98186.06;;;16.21;87.42
78317;BME280;67572;50.930;18.276;2023-08-30T14:27:13;98190.59;;;16.21;87.50
78317;BME280;67572;50.930;18.276;2023-08-30T14:30:16;98190.13;;;16.33;85.73
78317;BME280;67572;50.930;18.276;2023-08-30T14:33:20;98195.50;;;16.50;85.74
78317;BME280;67572;50.930;18.276;2023-08-30T14:36:24;98188.13;;;16.52;86.40
78317;BME280;67572;50.930;18.276;2023-08-30T14:39:29;98190.63;;;16.37;86.84
78317;BME280;67572;50.930;18.276;2023-08-30T14:42:32;98188.56;;;16.23;85.83
78317;BME280;67572;50.930;18.276;2023-08-30T14:45:36;98182.53;;;16.21;86.92
78317;BME280;67572;50.930;18.276;2023-08-30T14:48:40;98186.72;;;16.15;87.00
78317;BME280;67572;50.930;18.276;2023-08-30T14:51:44;98195.06;;;16.04;86.81
78317;BME280;67572;50.930;18.276;2023-08-30T14:54:50;98191.69;;;16.02;86.18
78317;BME280;67572;50.930;18.276;2023-08-30T14:57:54;98188.69;;;16.05;86.38
78317;BME280;67572;50.930;18.276;2023-08-30T15:00:58;98189.06;;;16.10;86.55
78317;BME280;67572;50.930;18.276;2023-08-30T15:04:02;98186.50;;;16.00;86.66
78317;BME280;67572;50.930;18.276;2023-08-30T15:07:06;98180.84;;;16.12;87.29
78317;BME280;67572;50.930;18.276;2023-08-30T15:10:11;98182.66;;;16.03;87.09
78317;BME280;67572;50.930;18.276;2023-08-30T15:13:14;98178.97;;;15.96;87.10
78317;BME280;67572;50.930;18.276;2023-08-30T15:16:18;98175.44;;;15.95;88.69
78317;BME280;67572;50.930;18.276;2023-08-30T15:19:21;98176.63;;;16.09;89.53
78317;BME280;67572;50.930;18.276;2023-08-30T15:22:25;98179.28;;;16.01;88.56
78317;BME280;67572;50.930;18.276;2023-08-30T15:25:30;98175.59;;;16.02;88.57
78317;BME280;67572;50.930;18.276;2023-08-30T15:28:34;98182.53;;;16.13;88.80
78317;BME280;67572;50.930;18.276;2023-08-30T15:31:37;98182.38;;;16.22;88.15
78317;BME280;67572;50.930;18.276;2023-08-30T15:34:41;98194.97;;;16.30;87.01
78317;BME280;67572;50.930;18.276;2023-08-30T15:37:45;98194.09;;;16.21;87.38
78317;BME280;67572;50.930;18.276;2023-08-30T15:40:53;98195.25;;;16.02;88.61
78317;BME280;67572;50.930;18.276;2023-08-30T15:43:57;98201.56;;;16.01;88.29
78317;BME280;67572;50.930;18.276;2023-08-30T15:47:00;98204.66;;;16.15;87.58
78317;BME280;67572;50.930;18.276;2023-08-30T15:50:05;98196.91;;;16.03;87.71
78317;BME280;67572;50.930;18.276;2023-08-30T15:53:09;98205.44;;;15.99;87.92
78317;BME280;67572;50.930;18.276;2023-08-30T15:56:13;98209.16;;;16.14;87.95
78317;BME280;67572;50.930;18.276;2023-08-30T15:59:17;98211.66;;;16.07;88.15
78317;BME280;67572;50.930;18.276;2023-08-30T16:02:21;98210.16;;;16.05;87.82
78317;BME280;67572;50.930;18.276;2023-08-30T16:05:26;98210.00;;;16.15;87.59
78317;BME280;67572;50.930;18.276;2023-08-30T16:08:29;98209.28;;;15.96;88.00
78317;BME280;67572;50.930;18.276;2023-08-30T16:11:34;98207.94;;;16.00;88.65
78317;BME280;67572;50.930;18.276;2023-08-30T16:14:38;98218.13;;;15.89;89.44